Weather observations for the past three days for
Cape May County Airport
Metric (Imperial)
Date Time (edt) Wind (kph) Vis. (km) Weather Sky Cond. Temperature (ºC) Relative Humidity Wind Chill (°C) Heat Index (°C) Pressure Precipitation (cm)
Air Dwpt 6 hour altimeter (cm) sea level (mb) 1 hr 3 hr 6 hr
Max. Min.
10 15:56 S 15 16.09 Fair CLR 25 10.6 40% 26 76.02 1013.7
10 14:56 SE 19 16.09 Fair CLR 25 12.8 47% 26 76.02 1013.7
10 13:56 Vrbl 6 16.09 Fair CLR 25.6 11.7 25.6 17.8 42% 26 76.05 1014.0
10 12:56 W 13 16.09 Fair CLR 24.4 11.1 43% 26 76.07 1014.2
10 11:56 NW 9 16.09 Fair CLR 24.4 12.2 47% 26 76.07 1014.2
10 10:56 Calm 16.09 Fair CLR 22.2 12.8 55% 76.07 1014.3
10 09:56 Calm 16.09 Fair CLR 20.6 13.3 63% 76.07 1014.2
10 08:56 W 11 16.09 Fair CLR 18.3 13.9 76% 76.05 1014.0
10 07:56 W 9 16.09 Fair CLR 17.8 13.9 17.8 10.6 78% 75.97 1013.1
10 06:56 Calm 16.09 Fair CLR 13.3 12.8 97% 75.95 1012.7
10 05:56 Calm 14.48 Fair CLR 12.2 11.7 97% 75.9 1011.9
10 04:56 S 6 16.09 Fair CLR 15 12.8 87% 75.82 1011.0
10 03:56 SW 11 16.09 Fair CLR 16.7 13.3 80% 75.79 1010.7
10 02:56 Calm 16.09 Fair CLR 12.8 12.2 96% 75.82 1010.9
10 01:56 S 7 16.09 Fair CLR 11.7 11.1 16.1 10.6 96% 75.82 1011.2
10 00:56 Calm 8.05 Fog/Mist CLR 12.8 12.2 96% 75.84 1011.4
09 23:56 Calm 16.09 Fair CLR 12.2 11.7 97% 75.84 1011.2
09 22:56 Calm 16.09 Fair CLR 12.2 11.7 97% 75.82 1011.0
09 21:56 Calm 16.09 Fair CLR 13.3 12.8 97% 75.82 1011.0
09 20:56 Calm 16.09 Fair CLR 14.4 13.3 93% 75.79 1010.5
09 19:56 SE 6 16.09 Fair CLR 16.1 13.9 20.6 16.1 87% 75.77 1010.2
09 18:56 S 13 16.09 Fair CLR 18.3 14.4 78% 75.72 1009.7
09 17:56 S 17 16.09 Fair CLR 18.9 14.4 75% 75.74 1009.9
09 16:56 S 24 16.09 Fair CLR 19.4 14.4 73% 75.72 1009.6
09 15:56 S 26 G 43 16.09 A Few Clouds FEW090 20 14.4 70% 75.79 1010.6
09 14:56 S 24 G 31 16.09 Overcast BKN065 OVC085 18.3 15 81% 75.84 1011.2
09 13:56 S 28 G 41 16.09 Overcast FEW042 OVC070 17.8 13.9 21.1 16.7 78% 75.87 1011.7
09 12:56 S 30 G 41 16.09 Mostly Cloudy BKN075 18.3 13.3 73% 75.92 1012.3
09 11:56 S 24 G 37 16.09 Fair CLR 21.1 13.9 64% 75.95 1012.8
09 10:56 S 20 16.09 Fair CLR 18.9 12.8 68% 76 1013.4
09 09:56 S 19 16.09 Fair CLR 18.3 12.2 68% 76 1013.4
09 08:56 S 24 G 33 16.09 Fair CLR 17.2 11.7 70% 76.02 1013.7
09 07:56 S 26 G 33 16.09 Fair CLR 17.2 11.1 17.2 13.3 68% 76.02 1013.7
09 06:56 S 20 16.09 NULL NULL 14.4 11.1 81% 76.02 1013.9
09 05:56 S 17 16.09 Fair CLR 14.4 10 75% 76.02 1013.7
09 04:56 S 20 16.09 Fair CLR 14.4 8.9 70% 76.02 1013.7
09 03:56 S 20 16.09 Fair CLR 14.4 8.3 67% 76.02 1013.8
09 02:56 S 17 16.09 Fair CLR 13.9 8.3 69% 76.05 1013.9
09 01:56 S 19 16.09 Fair CLR 13.3 7.8 15 12.8 70% 76.05 1014.2
09 00:56 S 20 G 30 16.09 Fair CLR 13.3 7.8 70% 76.07 1014.3
08 23:56 S 17 16.09 Fair CLR 13.3 7.2 67% 76.1 1014.6
08 22:56 S 19 16.09 Fair CLR 13.3 7.8 70% 76.07 1014.4
08 21:56 S 20 16.09 Fair CLR 13.9 8.3 69% 76.07 1014.4
08 20:56 S 24 16.09 Fair CLR 14.4 6.7 60% 76.02 1013.8
08 19:56 S 19 16.09 Partly Cloudy SCT110 14.4 8.3 18.9 14.4 67% 76 1013.4
08 18:56 S 22 16.09 Fair CLR 16.1 7.2 56% 75.95 1012.8
08 17:56 S 24 G 39 16.09 Fair CLR 16.7 6.7 52% 75.95 1012.8
08 16:56 S 28 16.09 Fair CLR 17.2 5 45% 75.97 1013.1
08 15:56 S 26 G 37 16.09 Fair CLR 17.8 2.8 37% 76.02 1013.7
08 14:56 S 24 16.09 Fair CLR 17.8 2.8 37% 76.07 1014.2
08 13:56 S 13 16.09 Fair CLR 18.3 2.2 18.9 12.2 34% 76.07 1014.3
08 12:56 SW 15 16.09 Fair CLR 17.8 1.1 33% 76.12 1014.9
08 11:56 W 11 16.09 Fair CLR 16.1 -1.7 30% 76.15 1015.5
08 10:56 W 15 16.09 Fair CLR 15.6 3.3 44% 76.2 1015.9
08 09:56 Vrbl 7 16.09 Fair CLR 13.9 2.8 47% 76.2 1016.0
08 08:56 NW 15 16.09 Fair CLR 13.3 4.4 55% 76.2 1016.0
08 07:56 N 15 16.09 Fair CLR 12.2 5 12.8 11.1 62% 76.15 1015.4
08 06:56 N 9 16.09 Fair CLR 11.1 5 66% 76.1 1014.7
08 05:56 N 15 16.09 Fair CLR 11.1 5 66% 76.02 1013.8
08 04:56 NW 15 G 26 16.09 Fair CLR 12.2 6.1 67% 75.97 1012.9
08 03:56 W 17 16.09 A Few Clouds FEW090 12.8 8.9 77% 75.9 1011.9
08 02:56 W 15 16.09 Overcast FEW065 OVC100 12.2 8.9 80% 75.82 1011.1
08 01:56 W 11 16.09 Overcast OVC095 11.1 8.3 12.2 8.9 83% 75.84 1011.2
08 00:56 W 11 16.09 Fair CLR 11.1 7.8 80% 75.84 1011.4
07 23:56 W 9 16.09 Fair CLR 11.1 7.8 80% 75.82 1011.2
07 22:56 SW 9 16.09 Fair CLR 10.6 8.3 86% 75.84 1011.2
07 21:56 S 7 16.09 Fair CLR 10 7.8 86% 9 75.82 1010.9
07 20:56 SW 13 16.09 Mostly Cloudy BKN110 11.7 9.4 86% 75.77 1010.4
07 19:56 S 11 16.09 Mostly Cloudy BKN110 12.2 8.3 14.4 12.2 77% 75.72 1009.8 0.05
07 18:56 SW 17 16.09 A Few Clouds FEW110 12.8 8.9 77% 75.72 1009.6
07 17:56 S 11 16.09 Overcast OVC100 12.8 8.9 77% 75.72 1009.7
07 16:56 S 11 16.09 Overcast FEW029 OVC095 13.3 8.9 75% 75.72 1009.7 0.05
Date Time (edt) Wind (kph) Vis. (km) Weather Sky Cond. Air Dwpt Max. Min. Relative Humidity Wind Chill (°C) Heat Index (°C) altimeter (cm) sea level (mb) 1 hr 3 hr 6 hr
6 hour
Temperature (ºC) Pressure Precipitation (cm)